Flight Track Log - Related Links

Times and Time Zones

All times are in EST time to prevent confusion due to time zone crossing. See the EJA102 flight status page for this flight to view local times or setup timezone preferences in your user account.

Time Position Orientation Groundspeed Altitude Reporting Facility
EST Latitude Longitude Course Direction KTS km/h feet Rate Location/Type
Wed 19:57:23 39.0833 -84.4167 207° Southwest 174 322 1.400  Level Cincinnati TRACON
Wed 19:58:23 39.0333 -84.4500 207° Southwest 194 359 3.900 2.479 Climbing Cincinnati TRACON
Wed 19:59:24 38.9878 -84.4739 202° Southwest 198 367 6.400 2.262 Climbing Indianapolis Center
Wed 20:00:25 38.9261 -84.4994 198° South 232 430 8.500 2.656 Climbing Indianapolis Center
Wed 20:01:26 38.8458 -84.5325 198° South 261 483 11.800 2.705 Climbing Indianapolis Center
Wed 20:02:27 38.7817 -84.5578 197° South 263 488 14.000 2.066 Climbing Indianapolis Center
Wed 20:03:28 38.7056 -84.5856 196° South 280 518 16.000 1.967 Climbing Indianapolis Center
Wed 20:04:29 38.6131 -84.5672 171° South 308 570 18.000 1.918 Climbing Indianapolis Center
Wed 20:05:30 38.5300 -84.5458 169° South 306 566 19.900 1.869 Climbing Indianapolis Center
Wed 20:06:31 38.4458 -84.5233 168° South 307 568 21.800 1.610 Climbing Indianapolis Center
Wed 20:07:33 38.3614 -84.5017 169° South 308 570 23.200 1.317 Climbing Indianapolis Center
Wed 20:08:34 38.2733 -84.4767 167° South 316 586 24.500 1.230 Climbing Indianapolis Center
Wed 20:09:35 38.1753 -84.4544 170° South 345 639 25.700 1.230 Climbing Indianapolis Center
Wed 20:10:36 38.0586 -84.4264 169° South 360 666 27.000 1.180 Climbing Indianapolis Center
Wed 20:11:37 37.9592 -84.4006 168° South 364 674 28.100 1.131 Climbing Indianapolis Center
Wed 20:12:38 37.8586 -84.3742 168° South 369 684 29.300 934 Climbing Indianapolis Center
Wed 20:13:39 37.7581 -84.3483 169° South 368 681 30.000 344 Climbing Indianapolis Center
Wed 20:14:40 37.6528 -84.3233 169° South 379 702 30.000  Level Indianapolis Center
Wed 20:15:41 37.5442 -84.2756 161° South 423 784 30.000  Level Indianapolis Center
Wed 20:16:43 37.4467 -84.1853 144° Southeast 432 800 30.000  Level Indianapolis Center
Wed 20:17:44 37.3522 -84.0939 142° Southeast 430 797 30.000  Level Indianapolis Center
Wed 20:18:45 37.2567 -84.0014 142° Southeast 432 800 30.000  Level Indianapolis Center
Wed 20:19:46 37.1600 -83.9086 143° Southeast 436 808 30.000  Level Indianapolis Center
Wed 20:20:47 37.0478 -83.8011 143° Southeast 437 810 30.000  Level Indianapolis Center
Wed 20:21:48 36.9528 -83.7100 143° Southeast 432 800 30.000  Level Indianapolis Center
Wed 20:22:49 36.8578 -83.6194 143° Southeast 430 797 30.000  Level Indianapolis Center
Wed 20:23:50 36.7633 -83.5294 143° Southeast 430 797 30.000 -836 Level Indianapolis Center
Wed 20:24:51 36.6656 -83.4372 143° Southeast 436 808 28.300 -1.805 Descending Indianapolis Center
Wed 20:25:53 36.5614 -83.3394 143° Southeast 457 847 26.300 -1.951 Descending Indianapolis Center
Wed 20:26:54 36.4569 -83.2419 143° Southeast 469 869 24.300 -1.981 Descending Indianapolis Center
Wed 20:27:39 36.3681 -83.1622 144° Southeast 464 859 22.800 -1.943 Descending Atlanta Center
Wed 20:28:39 36.2714 -83.0703 143° Southeast 459 850 20.900 -1.750 Descending Atlanta Center
Wed 20:29:39 36.1767 -82.9817 143° Southeast 447 827 19.300 -950 Descending Atlanta Center
Wed 20:30:39 36.0800 -82.8928 143° Southeast 442 819 19.000 -200 Descending Atlanta Center
Wed 20:31:39 35.9875 -82.8044 142° Southeast 431 798 18.900 -700 Descending Atlanta Center
Wed 20:32:39 35.8969 -82.7186 142° Southeast 425 787 17.600 -1.250 Descending Atlanta Center
Wed 20:33:39 35.8103 -82.6381 143° Southeast 405 750 16.400 -1.150 Descending Atlanta Center
Wed 20:34:39 35.7261 -82.5628 144° Southeast 382 708 15.300 -1.100 Descending Atlanta Center
Wed 20:35:39 35.6500 -82.4900 142° Southeast 382 708 14.200 -1.100 Descending Atlanta Center
Wed 20:36:39 35.5614 -82.4100 144° Southeast 390 723 13.100 -1.150 Descending Atlanta Center
Wed 20:37:39 35.4769 -82.3353 144° Southeast 390 723 11.900 -1.200 Descending Atlanta Center
Wed 20:38:39 35.3906 -82.2681 148° Southeast 385 713 10.700 -1.400 Descending Atlanta Center
Wed 20:39:39 35.3069 -82.2597 175° South 334 618 9.100 -1.600 Descending Atlanta Center
Wed 20:41:00 35.1750 -82.2429 174° South  Level FlightAware Approximate
Wed 20:48:00 34.7500 -82.3667 202° Southwest  Level FlightAware Approximate
Wed 20:49:00 34.7583 -82.3764 202° Southwest  Level Estimated
Wed 20:50:00 34.7583 -82.3764 202° Southwest  Level Estimated
Wed 20:51:00 34.7583 -82.3764 202° Southwest  Level Estimated
Wed 20:52:00 34.7583 -82.3764 202° Southwest  Level Estimated
Wed 20:53:00 34.7583 -82.3764 202° Southwest  Level Estimated
Wed 20:54:00 34.7583 -82.3764 202° Southwest  Level Estimated
Wed 20:55:00 34.7583 -82.3764 202° Southwest  Level Estimated
Wed 20:56:00 34.7583 -82.3764 202° Southwest  Level Estimated

Login

Don't have an account? Register now (free) for customized features, flight alerts, and more!